Schedule Details

Flight Number: ASX316X
Departure: Olsztyn Mazury (EPSY) at 13:20Z
Arrival: Gdansk im. Lecha Walesy (EPGD) at 14:20Z

Weather Information
EPSY 272000Z 02003KT CAVOK 15/14 Q1024
EPGD 272300Z 06004KT 020V110 CAVOK 16/15 Q1025

Schedule Frequency

Route Map